Latest Weather Observations for Canberra

IDN60901

Issued at 9:41 pm EDT Saturday 25 January 2020 (issued every 10 minutes, with the page automatically refreshed every 10 minutes)

About weather observations | Map of Canberra area stations | Latest observations for Canberra area | Other Formats
Station Details ID: 070351 Name: CANBERRA AIRPORT Lat: -35.31 Lon: 149.20 Height: 577.05 m
Data from the previous 72 hours. | See also: Recent months at Canberra
Date/Time
EDT
Temp
°C
App
Temp
°C
Dew
Point
°C
Rel
Hum
%
Delta-T
°C
Wind Press
QNH
hPa
Press
MSL
hPa
Rain since
9am
mm
Dir  Spd
km/h
Gust
km/h
Spd
kts
Gust
kts
25/09:30pm 25.3 24.3 18.0 64 4.7 E 20 30 11 16 1013.5 1010.9 0.0
25/09:00pm 26.1 24.3 15.5 52 6.6 E 19 24 10 13 1013.1 1010.5 0.0
25/08:30pm 27.6 24.6 5.8 25 11.6 W 11 13 6 7 1012.6 1009.9 0.0
25/08:00pm 28.8 26.1 5.6 23 12.4 W 9 13 5 7 1012.2 1009.6 0.0
25/07:30pm 30.4 26.0 4.9 20 13.6 WNW 17 24 9 13 1011.8 1009.2 0.0
25/07:00pm 31.1 27.1 4.8 19 14.1 NW 15 26 8 14 1011.5 1008.9 0.0
25/06:30pm 31.5 26.8 5.1 19 14.2 NW 19 28 10 15 1011.5 1008.9 0.0
25/06:00pm 31.8 26.4 4.6 18 14.6 NW 22 35 12 19 1011.4 1008.8 0.0
25/05:30pm 32.3 25.7 4.2 17 15.0 NW 28 39 15 21 1011.4 1008.8 0.0
25/05:00pm 32.3 25.2 3.3 16 15.3 NNW 30 37 16 20 1011.6 1009.0 0.0
25/04:30pm 32.5 25.2 2.5 15 15.6 NW 30 41 16 22 1011.9 1009.3 0.0
25/04:06pm 32.3 25.0 2.4 15 15.5 NW 30 50 16 27 1012.1 1009.5 0.0
25/04:00pm 33.0 25.2 2.9 15 15.8 NW 33 44 18 24 1012.2 1009.6 0.0
25/03:43pm 32.4 25.3 3.4 16 15.3 NW 30 50 16 27 1012.3 1009.7 0.0
25/03:30pm 32.7 26.7 3.6 16 15.4 WNW 24 35 13 19 1012.5 1009.8 0.0
25/03:00pm 31.8 24.6 2.9 16 15.1 NW 30 37 16 20 1012.9 1010.3 0.0
25/02:30pm 31.9 25.5 5.4 19 14.4 NW 28 41 15 22 1013.3 1010.7 0.0
25/02:07pm 31.3 24.8 4.9 19 14.2 WNW 28 46 15 25 1013.7 1011.1 0.0
25/02:00pm 31.4 25.9 5.8 20 14.0 WNW 24 41 13 22 1013.7 1011.1 0.0
25/01:30pm 31.1 24.7 6.9 22 13.4 NW 30 48 16 26 1014.4 1011.8 0.0
25/01:16pm 30.3 24.1 6.2 22 13.2 NW 28 46 15 25 1014.6 1012.0 0.0
25/01:00pm 29.9 23.6 5.9 22 13.0 NNW 28 43 15 23 1014.8 1012.2 0.0
25/12:30pm 28.9 23.1 8.0 27 11.7 NW 28 39 15 21 1015.2 1012.6 0.0
25/12:00pm 27.8 22.5 8.6 30 10.8 N 26 35 14 19 1015.3 1012.7 0.0
25/11:30am 27.9 23.3 9.7 32 10.4 NW 24 33 13 18 1015.4 1012.8 0.0
25/11:00am 26.8 23.9 12.8 42 8.4 NNW 20 33 11 18 1015.5 1012.9 0.0
25/10:30am 26.4 25.0 14.5 48 7.3 NNW 15 26 8 14 1015.7 1013.2 0.0
25/10:00am 24.3 23.0 15.8 59 5.3 N 17 26 9 14 1015.9 1013.4 0.0
25/09:31am 23.0 23.9 16.1 65 4.3 NW 6 13 3 7 1016.0 1013.5 0.0
25/09:30am 23.0 24.4 16.3 66 4.2 NW 4 13 2 7 1016.0 1013.5 0.0
25/09:00am 21.9 22.6 16.0 69 3.6 NNW 7 11 4 6 1016.2 1013.6 0.0
25/08:30am 20.8 21.5 16.0 74 3.0 N 7 13 4 7 1016.4 1013.8 0.0
25/08:00am 20.0 21.8 15.6 76 2.7 CALM 0 0 0 0 1016.2 1013.6 0.0
25/07:30am 19.3 20.3 15.4 78 2.4 SSE 4 7 2 4 1015.9 1013.4 0.0
25/07:00am 18.9 19.3 15.4 80 2.1 SSE 7 7 4 4 1015.7 1013.2 0.0
25/06:30am 18.5 19.0 15.0 80 2.1 SE 6 9 3 5 1015.6 1013.0 0.0
25/06:00am 18.7 19.0 15.0 79 2.2 SSE 7 9 4 5 1015.3 1012.7 0.0
25/05:30am 18.4 18.2 14.7 79 2.2 SSE 9 9 5 5 1015.1 1012.5 0.0
25/05:00am 18.3 18.5 14.6 79 2.2 SSE 7 7 4 4 1014.9 1012.3 0.0
25/04:30am 18.1 17.9 14.6 80 2.1 SSE 9 11 5 6 1014.9 1012.3 0.0
25/04:05am 18.0 18.2 14.7 81 2.0 SE 7 9 4 5 1015.0 1012.4 0.0
25/04:00am 17.9 18.6 14.6 81 2.0 SE 4 7 2 4 1015.0 1012.4 0.0
25/03:54am 17.8 19.2 14.5 81 2.0 CALM 0 0 0 0 1015.1 1012.5 0.0
25/03:30am 17.7 17.5 14.8 83 1.7 S 9 9 5 5 1015.3 1012.7 0.0
25/03:00am 17.4 17.7 14.9 85 1.5 SSE 7 7 4 4 1015.6 1013.0 0.0
25/02:30am 17.2 17.4 14.7 85 1.5 SE 7 9 4 5 1015.7 1013.2 0.0
25/02:17am 17.2 17.4 14.8 86 1.4 SE 7 11 4 6 1015.9 1013.4 0.0
25/02:00am 16.6 16.5 13.9 84 1.6 SE 7 9 4 5 1015.9 1013.4 0.0
25/01:30am 16.9 18.2 14.2 84 1.6 CALM 0 6 0 3 1015.9 1013.4 0.0
25/01:00am 16.7 16.4 13.4 81 1.9 ENE 7 9 4 5 1015.8 1013.3 0.0
25/12:30am 17.4 18.5 13.5 78 2.3 CALM 0 0 0 0 1015.9 1013.4 0.0
25/12:00am 17.8 17.6 13.5 76 2.5 S 7 9 4 5 1016.3 1013.7 0.0
 
Date/Time
EDT
Temp
°C
App
Temp
°C
Dew
Point
°C
Rel
Hum
%
Delta-T
°C
Wind Press
QNH
hPa
Press
MSL
hPa
Rain since
9am
mm
Dir  Spd
km/h
Gust
km/h
Spd
kts
Gust
kts
24/11:30pm 18.3 16.7 13.8 75 2.6 ESE 15 22 8 12 1016.0 1013.5 0.0
24/11:00pm 18.8 15.9 14.1 74 2.8 E 22 32 12 17 1015.7 1013.2 0.0
24/10:30pm 18.9 15.3 14.2 74 2.8 E 26 33 14 18 1015.4 1012.8 0.0
24/10:00pm 19.2 15.9 14.0 72 3.1 E 24 32 13 17 1015.0 1012.4 0.0
24/09:30pm 20.9 17.5 10.4 51 5.9 ENE 19 28 10 15 1014.4 1011.8 0.0
24/09:00pm 21.8 16.7 0.9 25 9.8 NE 17 19 9 10 1013.6 1011.0 0.0
24/08:30pm 23.2 18.0 0.3 22 10.8 N 17 19 9 10 1013.0 1010.4 0.0
24/08:00pm 24.2 18.6 -0.2 20 11.5 N 19 22 10 12 1012.1 1009.5 0.0
24/07:30pm 25.5 19.2 -1.3 17 12.4 N 22 26 12 14 1011.6 1009.0 0.0
24/07:00pm 26.4 20.6 -1.4 16 13.0 NW 19 26 10 14 1011.1 1008.4 0.0
24/06:30pm 27.1 21.3 -1.7 15 13.4 NW 19 28 10 15 1010.9 1008.2 0.0
24/06:00pm 27.2 21.8 -1.7 15 13.5 WNW 17 30 9 16 1010.9 1008.2 0.0
24/05:30pm 27.5 20.9 -0.5 16 13.4 NW 24 35 13 19 1011.2 1008.6 0.0
24/05:00pm 27.4 20.9 0.2 17 13.2 NW 24 37 13 20 1011.1 1008.4 0.0
24/04:30pm 27.6 21.0 -0.5 16 13.4 WNW 24 33 13 18 1011.1 1008.4 0.0
24/04:00pm 27.3 20.5 3.1 21 12.3 WNW 28 39 15 21 1011.1 1008.4 0.0
24/03:30pm 27.8 20.2 2.8 20 12.7 NW 32 48 17 26 1011.3 1008.7 0.0
24/03:23pm 28.3 20.9 3.9 21 12.7 NW 32 48 17 26 1011.2 1008.6 0.0
24/03:00pm 27.3 20.7 4.4 23 11.9 WNW 28 41 15 22 1011.4 1008.8 0.0
24/02:30pm 27.6 21.2 5.2 24 11.8 W 28 41 15 22 1011.6 1009.0 0.0
24/02:00pm 27.3 19.7 5.6 25 11.5 NW 35 56 19 30 1011.6 1009.0 0.0
24/01:57pm 28.1 21.0 6.2 25 11.8 NW 33 56 18 30 1011.5 1008.9 0.0
24/01:30pm 26.8 21.0 6.2 27 11.0 WNW 26 37 14 20 1011.7 1009.1 0.0
24/01:00pm 26.4 22.0 7.4 30 10.4 WNW 20 33 11 18 1011.9 1009.3 0.0
24/12:30pm 25.8 20.8 7.9 32 9.8 W 24 35 13 19 1012.0 1009.4 0.0
24/12:00pm 25.1 20.2 8.6 35 9.1 W 24 37 13 20 1012.1 1009.5 0.0
24/11:30am 23.8 20.0 9.0 39 8.2 NW 19 30 10 16 1012.5 1009.8 0.0
24/11:00am 23.4 20.4 10.5 44 7.3 W 17 26 9 14 1012.3 1009.7 0.0
24/10:30am 21.8 17.9 9.3 45 6.9 WNW 20 28 11 15 1012.5 1009.8 0.0
24/10:00am 20.9 17.0 8.5 45 6.7 WNW 19 26 10 14 1012.6 1009.9 0.0
24/09:30am 20.6 16.6 8.9 47 6.4 W 20 30 11 16 1012.7 1010.1 0.0
24/09:00am 19.5 15.4 8.8 50 5.8 NW 20 30 11 16 1012.7 1010.1 3.2
24/08:30am 18.3 15.7 12.1 67 3.5 NNW 17 20 9 11 1012.6 1009.9 3.2
24/08:00am 17.2 14.9 12.9 76 2.5 NNW 17 20 9 11 1012.3 1009.7 3.2
24/07:30am 16.4 14.2 13.3 82 1.8 NNW 17 24 9 13 1011.9 1009.3 3.2
24/07:00am 15.7 13.4 13.0 84 1.5 NNW 17 20 9 11 1011.1 1008.4 3.2
24/06:30am 15.3 12.9 12.8 85 1.4 NNW 17 24 9 13 1010.3 1007.7 3.2
24/06:00am 15.1 13.1 12.6 85 1.4 NNW 15 19 8 10 1009.9 1007.3 3.2
24/05:30am 15.5 14.2 12.4 82 1.7 N 11 15 6 8 1009.4 1006.7 3.2
24/05:00am 15.6 12.8 12.5 82 1.8 NNW 19 26 10 14 1009.1 1006.4 3.2
24/04:30am 15.8 12.8 12.5 81 1.9 N 20 28 11 15 1009.0 1006.3 3.2
24/04:00am 16.1 13.2 12.8 81 1.9 NNW 20 26 11 14 1008.8 1006.1 3.2
24/03:30am 16.6 14.2 12.8 78 2.2 NNW 17 22 9 12 1008.8 1006.1 3.2
24/03:00am 16.7 15.1 12.7 77 2.3 NNW 13 17 7 9 1008.4 1005.8 3.2
24/02:30am 16.6 16.1 12.8 78 2.2 N 7 13 4 7 1008.2 1005.6 3.2
24/02:00am 16.6 16.2 14.2 86 1.4 S 9 9 5 5 1007.8 1005.1 3.2
24/01:30am 17.0 18.0 13.3 79 2.1 CALM 0 0 0 0 1008.0 1005.3 3.2
24/01:00am 17.4 17.1 14.3 82 1.8 N 9 13 5 7 1007.9 1005.2 3.2
24/12:30am 17.3 16.9 15.1 87 1.3 NNW 11 15 6 8 1007.9 1005.2 3.2
24/12:00am 17.7 16.3 14.4 81 2.0 NNE 15 22 8 12 1007.8 1005.1 3.2
 
Date/Time
EDT
Temp
°C
App
Temp
°C
Dew
Point
°C
Rel
Hum
%
Delta-T
°C
Wind Press
QNH
hPa
Press
MSL
hPa
Rain since
9am
mm
Dir  Spd
km/h
Gust
km/h
Spd
kts
Gust
kts
23/11:30pm 17.4 15.7 14.7 84 1.6 N 17 20 9 11 1007.5 1004.8 3.2
23/11:00pm 17.3 15.1 14.9 86 1.4 NNE 20 24 11 13 1007.5 1004.8 3.2
23/10:30pm 17.2 15.5 14.8 86 1.4 N 17 22 9 12 1007.3 1004.6 3.2
23/10:03pm 17.6 15.0 15.0 85 1.6 NNW 22 32 12 17 1007.7 1005.0 2.4
23/10:01pm 17.5 15.0 15.1 86 1.4 NNW 22 32 12 17 1007.5 1004.8 2.4
23/10:00pm 17.5 14.9 15.0 85 1.5 NNW 22 32 12 17 1007.4 1004.7 2.4
23/09:48pm 17.1 14.1 13.6 80 2.0 W 22 33 12 18 1007.8 1005.1 1.4
23/09:35pm 19.4 16.9 13.6 69 3.4 WSW 19 28 10 15 1007.1 1004.4 0.0
23/09:30pm 19.6 18.0 13.8 69 3.4 W 15 24 8 13 1007.0 1004.3 0.0
23/09:00pm 19.2 17.6 14.0 72 3.1 WNW 15 22 8 12 1006.5 1003.9 0.0
23/08:30pm 19.6 17.0 13.8 69 3.4 W 20 30 11 16 1005.7 1003.0 0.0
23/08:00pm 19.8 16.2 14.2 70 3.3 W 26 35 14 19 1005.2 1002.5 0.0
23/07:30pm 21.0 18.1 13.9 64 4.2 W 22 35 12 19 1004.8 1002.1 0.0
23/07:00pm 22.3 19.2 13.4 57 5.3 WSW 22 35 12 19 1004.3 1001.6 0.0
23/06:30pm 24.1 21.2 13.0 50 6.6 WNW 20 33 11 18 1004.3 1001.6 0.0
23/06:00pm 25.4 20.8 12.3 44 7.8 WNW 28 39 15 21 1003.7 1001.0 0.0
23/05:30pm 26.5 19.3 10.6 37 9.2 WNW 39 57 21 31 1003.4 1000.6 0.0
23/05:00pm 28.8 20.9 10.9 33 10.5 NW 43 61 23 33 1002.9 1000.2 0.0
23/04:33pm 28.7 22.4 12.2 36 9.8 NW 37 56 20 30 1002.7 1000.0 0.0
23/04:30pm 29.7 22.7 12.6 35 10.3 NW 41 56 22 30 1002.6 999.9 0.0
23/04:00pm 28.9 22.2 11.0 33 10.5 NW 37 56 20 30 1002.8 1000.1 0.0
23/03:45pm 29.2 23.5 11.7 34 10.4 WNW 33 52 18 28 1003.1 1000.4 0.0
23/03:30pm 28.5 22.4 11.6 35 10.0 WNW 35 48 19 26 1002.6 999.9 0.0
23/03:00pm 28.1 19.5 11.6 36 9.8 NW 48 70 26 38 1002.7 1000.0 0.0
23/02:32pm 30.7 20.5 10.1 28 12.0 NW 54 72 29 39 1002.3 999.6 0.0
23/02:30pm 30.8 20.3 10.2 28 12.0 NNW 56 72 30 39 1002.3 999.6 0.0
23/02:00pm 32.8 23.0 10.2 25 13.4 NW 52 78 28 42 1002.1 999.4 0.0
23/01:30pm 31.9 21.0 8.8 24 13.2 NW 56 78 30 42 1002.2 999.5 0.0
23/01:00pm 31.6 20.6 6.6 21 13.9 NW 54 72 29 39 1001.9 999.2 0.0
23/12:30pm 34.0 22.3 5.5 17 15.7 NNW 56 76 30 41 1001.5 998.7 0.0
23/12:00pm 33.5 21.4 4.2 16 15.8 NW 57 82 31 44 1001.2 998.5 0.0
23/11:48am 33.2 21.8 4.9 17 15.4 NW 54 72 29 39 1001.1 998.4 0.0
23/11:30am 34.0 22.3 5.5 17 15.7 NW 56 74 30 40 1001.1 998.4 0.0
23/11:22am 33.3 21.5 5.8 18 15.1 NW 57 80 31 43 1001.0 998.3 0.0
23/11:00am 34.1 22.2 7.2 19 15.3 NW 59 82 32 44 1001.2 998.5 0.0
23/10:30am 33.6 21.7 4.3 16 15.8 NW 56 76 30 41 1001.0 998.3 0.0
23/10:03am 32.0 21.4 3.1 16 15.1 NNW 48 70 26 38 1001.2 998.5 0.0
23/10:00am 31.8 21.5 2.9 16 15.1 NNW 46 59 25 32 1001.1 998.4 0.0
23/09:30am 31.4 20.2 1.7 15 15.1 NW 50 69 27 37 1001.5 998.7 0.0
23/09:00am 31.3 20.7 0.6 14 15.4 NNW 46 70 25 38 1001.7 998.9 0.0
23/08:32am 30.5 20.6 -1.0 13 15.3 NNW 41 67 22 36 1001.7 998.9 0.0
23/08:30am 30.3 20.4 -1.2 13 15.2 N 41 56 22 30 1001.7 998.9 0.0
23/08:04am 28.8 21.4 -0.4 15 14.1 N 28 48 15 26 1002.0 999.3 0.0
23/08:00am 27.9 21.3 -0.2 16 13.6 N 24 32 13 17 1002.1 999.4 0.0
23/07:30am 26.2 18.5 0.0 18 12.5 N 30 33 16 18 1002.2 999.5 0.0
23/07:00am 24.9 18.0 0.4 20 11.7 N 26 35 14 19 1002.1 999.4 0.0
23/06:30am 24.9 17.7 0.4 20 11.7 N 28 32 15 17 1002.3 999.6 0.0
23/06:00am 24.6 17.8 0.8 21 11.5 N 26 32 14 17 1002.4 999.7 0.0
23/05:30am 25.1 19.7 1.3 21 11.6 N 19 32 10 17 1002.6 999.9 0.0
23/05:00am 20.4 16.9 3.6 33 8.3 S 11 15 6 8 1003.0 1000.3 0.0
23/04:30am 21.8 19.1 3.5 30 9.0 SSE 7 9 4 5 1003.0 1000.3 0.0
23/04:00am 20.1 16.6 3.3 33 8.2 SSW 11 13 6 7 1003.6 1000.9 0.0
23/03:30am 23.9 21.1 2.1 24 10.7 W 6 9 3 5 1004.0 1001.3 0.0
23/03:00am 23.6 20.2 1.9 24 10.6 N 9 13 5 7 1004.5 1001.8 0.0
23/02:30am 23.7 20.3 2.0 24 10.6 W 9 15 5 8 1005.1 1002.4 0.0
23/02:00am 22.5 18.9 3.1 28 9.6 SW 11 19 6 10 1005.3 1002.6 0.0
23/01:30am 23.7 20.7 2.0 24 10.6 NNW 7 9 4 5 1005.4 1002.7 0.0
23/01:00am 24.8 20.5 1.0 21 11.5 N 13 15 7 8 1005.8 1003.1 0.0
23/12:30am 26.2 20.5 0.8 19 12.3 N 20 28 11 15 1005.9 1003.2 0.0
23/12:00am 26.5 21.1 1.0 19 12.5 N 19 28 10 15 1006.0 1003.3 0.0
 
Date/Time
EDT
Temp
°C
App
Temp
°C
Dew
Point
°C
Rel
Hum
%
Delta-T
°C
Wind Press
QNH
hPa
Press
MSL
hPa
Rain since
9am
mm
Dir  Spd
km/h
Gust
km/h
Spd
kts
Gust
kts
22/11:30pm 25.9 21.6 1.2 20 12.0 N 13 17 7 9 1006.2 1003.5 0.0
22/11:00pm 25.4 21.8 0.8 20 11.9 N 9 11 5 6 1006.5 1003.9 0.0
22/10:30pm 25.9 21.8 -0.2 18 12.4 NNE 11 15 6 8 1006.6 1004.0 0.0
22/10:00pm 26.4 22.0 0.2 18 12.6 NNE 13 17 7 9 1006.6 1004.0 0.0

Latest Capital City Observations: Canberra | Sydney | Melbourne | Brisbane | Adelaide | Perth | Hobart | Darwin

Other formats

Comma delimited format used in spreadsheet applications
http://www.bom.gov.au/fwo/IDN60903/IDN60903.94926.axf

JavaScript Object Notation format (JSON) in row-major order
http://www.bom.gov.au/fwo/IDN60903/IDN60903.94926.json

Data quality

Most of these data are generated automatically and are frequently updated. Quality checks on data are not normally performed. It is possible for incorrect values to appear. Refer to information at About Latest Weather Observations and please check the disclaimer before using these data.